Change Date:Time:

Metar of : 11/30/2021 0300UTC
71%42%58%31%78%38%84%63%83%81%36%79%83%26%75%83%39%49%52%
 Station  Wind Direction  Speed  Visibility Clouds Temperature Pressure Humidity
OPAS 300300Z 18002KT CAVOK M02/M10 53%
ASTORE S 02KT Clear 02oC 53%
OPAK 00000KT 4000 FU NSC 07/05 Q1018 85%
ATTOCK --- 00KT 4000m Smoke Haze 07oC 1018hp 85%
OPBDN 300300Z 00000KT 8000 SCT 200 17/12 Q1015 RH71%
BADIN --- 00KT 8000m Partly Cloudy 17oC 1015hp 71%
OPBR 00000KT 1500 BR NSC 13/11 88%
BAHAWALNAGAR --- 00KT 1500m Mist 13oC 88%
OPBW 00000KT 0100 FG NSC 11/10 Q1018 94%
BAHAWALPUR A/P --- 00KT 0100m Fog 11oC 1018hp 94%
OPBK 0300Z 00000KT CAVOK 05/02 85%
BALAKOT --- 00KT Clear 05oC 85%
OPBN 36002KT CAVOK 11/03 RH 58%
BANNU N 02KT Clear 11oC 58%
OPBKN 300300Z 36002KT CAVOK 10/M02 RH42%
BAR KHAN N 02KT Cloudy 10oC 42%
OPBKR 00000KT 2500 BR NSC 11/09 87%
BHAKKAR --- 00KT 2500m Mist 11oC 87%
OPBJ 300300Z 18002KT 9999 FEW040 FEW120 04/M04 54%
BUNJI S 02KT 9999m Partly Cloudy 04oC 54%
OPCK 00000KT 2500 FU BKN250 10/06 76%
CHAKWAL --- 00KT 2500m Cloudy 10oC 76%
OPKE 300300Z 00000KT 6000 NSC 15/07 Q1017 RH58%
CHHOR --- 00KT 6000m Clear 15oC 1017hp 58%
OPCL 300300Z 00000KT 9999 NSC 08/M08 RH31%
CHILAS --- 00KT 9999m Clear 08oC 31%
OPCH 300300Z 36006KT CAVOK 09/M02 Q1026 47%
CHITRAL N 06KT Clear 09oC 1026hp 47%
OPDG 00000KT 2000 FU NSC 09/06 Q1018 80%
D G KHAN --- 00KT 2000m Smoke Haze 09oC 1018hp 80%
OPDI 27002KT 3000 BR NSC 10/07 Q1019 81%
D I Khan A/P W 02KT 3000m Mist 10oC 1019hp 81%
OPDU 300300Z 05002KT 3000 FU NSC 15/11 RH78%
DADU NE 02KT 3000m Dust Haze 15oC 78%
OPDB 300300Z 00000KT 9999 NSC 09/M05 Q1020 RH38%
DALBANDIN --- 00KT 9999m Clear 09oC 1020hp 38%
OPDIR 30/0300Z 00000KT CAVOK 01/M02 82%
DIR --- 00KT Clear 01oC 82%
OPDH 300300Z 00000KT CAVOK 07/-08 35%
DROSH --- 00KT Clear 07oC 35%
OPFA 00000KT 0800 BR NSC 11/09 Q1018 BECMG 0 87%
FAISALABAD --- 00KT 0800m Mist 11oC 1018hp 87%
OPGP 00000KT CAVOK 04/01 84%
GARHI DOPATTA --- 00KT Clear 04oC 84%
OPGD 300300Z 00000KT 3000 BR NSC 16/13 Q1017 RH84%
GAWADAR --- 00KT 3000m Mist 16oC 1017hp 84%
OPGT 300300Z 00000KT 6000 SCT120 M02/M03 Q1027 RH90%A.V O.H.CLOUDY
GILGIT --- 00KT 6000m Partly Cloudy 02oC 1027hp
OPGW 00000KT 0300 FG NSC 09/08 93%
GUJRANWALA --- 00KT 0300m Fog 09oC 93%
OPUG 00000KT 4000 FU NSC 11/07 81%
GUJRAT --- 00KT 4000m Smoke Haze 11oC 81%
OPHD 00000KT 1100 BR NSC 09/07 93%
HAFIZABAD --- 00KT 1100m Mist 09oC 93%
OPHZ 300300Z 00000KT 8000 SCT040 BKN100 02/M07 52%
HUNZA --- 00KT 8000m Partly Cloudy 02oC 52%
OPKD 300300Z 36006KT 2000 FU NSC 19/12 Q1017 RH63%
HYDERABAD N 06KT 2000m Smoke Haze 19oC 1017hp 63%
OPIS 27006KT 2000 BR NSC 10/07 Q1018 BECMG H 82%
ISLAMABAD A/P W 06KT 2000m Mist 10oC 1018hp 82%
OPIS MET WARNING NO. 02: PREVIOUS WEATHER WARNING FOR POOR VISIBILITY OVER ISLAMABAD AIRFIELD IS EXTENDED UPTO 30,0630Z.
ISLAMABAD A/P
OPIS 3006/0112 23006KT 3000 FU NSC TEMPO 1500
ISLAMABAD A/P SW 06KT
OPIS 3006/3015 23006KT 3000 FU NSC TEMPO 4000
ISLAMABAD A/P SW 06KT
OPHQ 00000KT 4000 FU NSC 06/05 Q1021 RH 93%
ISLAMABAD CITY --- 00KT 4000m Smoke Haze 06oC 1021hp 93%
OPJD 300300Z 00000KT 1500 FU NSC 13/10 Q1019 RH83%
JACOBABAD --- 00KT 1500m Smoke Haze 13oC 1019hp 83%
OPJG 00000KT 1000 BR NSC 10/09 Q1019 93%
JHANG --- 00KT 1000m Mist 10oC 1019hp 93%
OPJM 00000KT 2000 BR SCT120 10/08 87%
JHELUM --- 00KT 2000m Mist 10oC 87%
OPJI 300300Z 05002KT 3000 HZ SKC 20/17 Q1015 RH81%
JIWANI NE 02KT 3000m Haze 20oC 1015hp 81%
OPJBD 00000KT 1500 BR FEW120 09/06 86%
JOHARABAD --- 00KT 1500m Mist 09oC 86%
OPKK 00000KT 9999 SCT200 05/M01 RH 63%
KAKUL --- 00KT 9999m Partly Cloudy 05oC 63%
OPKC 300300Z 02004KT 4000 HZ NSC 22/06 Q1015 RH36%
KARACHI NNE 04KT 4000m Haze 22oC 1015hp 36%
OPKRL 00000KT 5000 FU NSC 09/05 79%
KAROR (LAYYAH) --- 00KT 5000m Smoke Haze 09oC 79%
OPKS 00000KT 2000 BR NSC 11/10 94%
KASUR --- 00KT 2000m Mist 11oC 94%
OPKW 00000KT 0050 FG NSC 09/09 Q1017 100%
KHANEWAL --- 00KT 0050m Fog 09oC 1017hp 100%
OPKP 00000KT 1000 BR NSC 12/11 94%
KHANPUR --- 00KT 1000m Mist 12oC 94%
OPKAD 00000KT 2000 BR NSC 11/09 Q 1019 88%
KOT ADDU --- 00KT 2000m Mist 11oC 1019hp 88%
OPKL 05002KT CAVOK 08/04 74%
KOTLI NE 02KT Clear 08oC 74%
OPLA 00000KT 0800 BR NSC 11/09 Q1018 A3006 BECMG U 87%
LAHORE A/P --- 00KT 0800m Mist 11oC 1018hp 87%
OPLA MET WARNING NO 02 PREVIOUS MET WARNING FOR POOR VISIBILITY OVER LAHORE AIRFIELD IS EXTENDED UPTO 30,0630UTC
LAHORE A/P
OPLRK 300300Z 045042KT 3000HZ NSC 17/12
LARKANA NE 04KT Haze 17oC
OPTMG 00000KT CAVOK 05/02 85%
LOWER DIR --- 00KT Clear 05oC 85%
OPMJB 13004KT CAVOK 05/-06 46%
MALAM JABBA SE 04KT Clear 05oC 46%
OPMB 00000KT 3000 BR SCT120 11/10 Q1020 94%
MANDI BAHAUDDIN --- 00KT 3000m Mist 11oC 1020hp 94%
OPMA 00000KT 1000 BR BKN200 11/08 Q1020 81%
MANGLA --- 00KT 1000m Mist 11oC 1020hp 81%
OPMPK 300300Z 36002KT 7000 NSC 16/12 Q1016 RH79%
MIR PUR KHAS N 02KT 7000m Clear 16oC 1016hp 79%
OPMIT 300300Z 00000KT 6000 NSC 13/11 Q1015 RH83%
MITHI --- 00KT 6000m Clear 13oC 1015hp 83%
OPMJ 300300Z 31002KT 0800 BR NSC 14/12 Q1016 RH89%BECMG 00 BR
MOHENJO DARO NW 02KT 0800m Mist 14oC 1016hp
OPMT 00000KT 0350 BR NSC 11/09 Q1018 TEMPO 0 87%
MULTAN A/P --- 00KT 0350m Mist 11oC 1018hp 87%
OPMT 30,0305Z OOOOOKT FG VV/// 10/10 Q1018
MULTAN A/P Fog 10oC 1018hp
OPME 36004KT 9999 SCT100 09/M08 31%
MURREE N 04KT 9999m Partly Cloudy 09oC 31%
OPMF 00000KT 8000 NSC 07/04 86%
MUZAFFARABAD A/P --- 00KT 8000m Clear 07oC 86%
OPNL 00000KT 0100 FG NSC 07/07 Q1017 100%
NAROWAL --- 00KT 0100m Fog 07oC 1017hp 100%
OPNH 300300Z 31504KT 1000 BR NSC 15/13 Q1018.6 INCH 30.08 RH89%TEMPO8 800FG
NAWABSHAH NW 04KT 1000m Fog 15oC
OPNK 300300Z 00000KT 9999 SCT200 14/M06 Q1016 RH26%
NOKKUNDI --- 00KT 9999m Partly Cloudy 14oC 1016hp 26%
OPNPT 00000KT 3000 BR NSC 09/08 93%
NOOR PUR THAL --- 00KT 3000m Mist 09oC 93%
OPOK 00000KT 1500 BR NSC 12/09 Q1021 82%
OKARA --- 00KT 1500m Mist 12oC 1021hp 82%
OPOR 300300Z 27002KT 3000 FU NSC T 17/13 Q1016 RH75%
ORMARA W 02KT 3000m Smoke Haze 17oC 1016hp 75%
OPPDN 300300Z 00000KT 3000 BR 14/12 Q1018 RH83%
PADIDAN --- 00KT 3000m Mist 14oC 1018hp 83%
OPPG 300300Z 05010KT 7000 NSC 11/M02 Q1022 RH39%
PANJGUR NE 10KT 7000m Clear 11oC 1022hp 39%
OPPS (CITY) 00000KT 4000 FU NSC 08/05 Q1019 86%
PESHAWAR AP --- 00KT 4000m Smoke Haze 08oC 1019hp 86%
OPRK 04502KT 3000 BR NSC 15/10 Q1021 78%
R Y KHAN NE 02KT 3000m Mist 15oC 1021hp 78%
OPRT 00000KT CAVOK 03/M01 Q1029 77%
RAWALAKOT --- 00KT Clear 03oC 1029hp 77%
OPRRI 300300Z 00000KT 4000 HZ NSC 16/13 P1P1 0101
ROHRI --- 00KT 4000m Haze 16oC
OPSW 00000KT 1500 BR NSC 11/09 Q1019 87%
SAHIWAL --- 00KT 1500m Mist 11oC 1019hp 87%
OPSS 0300Z 13004KT CAVOK 05/01 78%
SAIDU SHARIF SE 04KT Clear 05oC 78%
OPQT 13004KT 4000 HZ NSC 04/M06 Q1026 RH49%
SAMUNGLI SE 04KT 4000m Haze 04oC 1026hp 49%
OPQT 300300Z 3006/3015 27015KT 8000 FEW100 SCT200
SAMUNGLI W 15KT
OPQT 300330Z 3006/0112 27015KT 8000 FEW100 SCT200 TEMPO U NSC
SAMUNGLI W 15KT
OPSG 00000KT 2500 BR NSC 12/10 88%
SARGODHA CITY --- 00KT 2500m Mist 12oC 88%
OPST 00000KT 0800 FG SCT100 09/08 Q1018 BECMG R 93%
SIALKOT A/P --- 00KT 0800m Fog 09oC 1018hp 93%
OPSKT 00000KT 5000 FU FEW110 09/07 86%
SIALKOT CITY --- 00KT 5000m Partly Cloudy 09oC 86%
OPSD 300300Z 00000KT 8000 FEW040 SCT200 M03/M06 Q1030 70%AV P/CLOUDY
SKARDU --- 00KT 8000m Partly Cloudy 03oC 1030hp 70%
OPSK 300300Z 00000KT 0800 BR NSC 13/11 Q1017 RH88%TEMPO 00 BR
SUKKUR --- 00KT 0800m Mist 13oC 1017hp
OPTKB 00000KT 3500(MIST) 06/05 R/H 92%
TAKHT BHAI --- 00KT 06oC 92%
OPTU 300300Z 00000KT 6000 NSC 18/08 Q1017 RH52%
TURBAT --- 00KT 6000m Clear 18oC 1017hp 52%
OPZB 300300Z 00000KT CAVOK 07/-00 Q1026 60%
ZHOB --- 00KT Clear 07oC 1026hp 60%